Time;durP1;ratioP1;P1;durP2;ratioP2;P2;SDS_P1;SDS_P2;PMS_P1;PMS_P2;Temp;Humidity;BMP_temperature;BMP_pressure;BME280_temperature;BME280_humidity;BME280_pressure;Samples;Min_cycle;Max_cycle;Signal;HPM_P1;HPM_P2
2022/05/03 00:01:27;;;;;;;4.47;2.88;;;;;;;;;;4914929;29;20568;-70
2022/05/03 00:04:02;;;;;;;2.78;2.55;;;;;;;;;;4915261;29;20032;-70
2022/05/03 00:06:45;;;;;;;3.05;2.55;;;;;;;;;;4914985;29;20024;-70
2022/05/03 00:09:15;;;;;;;3.95;3.00;;;;;;;;;;4914994;29;20402;-70
2022/05/03 00:11:45;;;;;;;3.65;2.78;;;;;;;;;;4915080;29;20054;-70
2022/05/03 00:14:15;;;;;;;5.00;3.13;;;;;;;;;;4915488;29;20035;-70
2022/05/03 00:16:44;;;;;;;3.40;3.10;;;;;;;;;;4914228;29;20055;-70
2022/05/03 00:19:10;;;;;;;4.20;3.20;;;;;;;;;;4919003;29;20055;-70
2022/05/03 00:21:38;;;;;;;6.13;3.15;;;;;;;;;;4918562;29;20024;-70
2022/05/03 00:24:06;;;;;;;3.20;2.67;;;;;;;;;;4918772;29;20054;-70
2022/05/03 00:26:32;;;;;;;8.80;3.53;;;;;;;;;;4918811;29;20099;-70
2022/05/03 00:28:59;;;;;;;3.40;3.10;;;;;;;;;;4919135;29;20032;-70
2022/05/03 00:31:27;;;;;;;3.65;3.35;;;;;;;;;;4919184;29;20043;-70
2022/05/03 00:33:57;;;;;;;6.97;3.40;;;;;;;;;;4901648;29;20024;-70
2022/05/03 00:36:24;;;;;;;4.18;3.40;;;;;;;;;;4918218;29;20136;-70
2022/05/03 00:38:51;;;;;;;5.85;3.08;;;;;;;;;;4918645;29;20031;-70
2022/05/03 00:41:29;;;;;;;4.82;3.28;;;;;;;;;;4918420;29;20417;-70
2022/05/03 00:43:58;;;;;;;4.95;3.45;;;;;;;;;;4915075;29;20408;-70
2022/05/03 00:46:28;;;;;;;5.05;3.58;;;;;;;;;;4918845;29;20041;-70
2022/05/03 00:49:13;;;;;;;5.88;3.15;;;;;;;;;;4918399;29;20021;-70
2022/05/03 00:51:58;;;;;;;4.75;3.65;;;;;;;;;;4918063;29;20028;-70
2022/05/03 00:54:43;;;;;;;4.18;3.25;;;;;;;;;;4901215;29;20028;-70
2022/05/03 00:57:23;;;;;;;4.97;3.60;;;;;;;;;;4918197;29;20047;-70
2022/05/03 01:00:10;;;;;;;5.85;3.78;;;;;;;;;;4918140;29;20409;-70
2022/05/03 01:02:45;;;;;;;3.70;3.25;;;;;;;;;;4904303;29;20032;-70
2022/05/03 01:05:14;;;;;;;3.75;3.33;;;;;;;;;;4917815;29;20504;-70
2022/05/03 01:07:48;;;;;;;4.78;3.38;;;;;;;;;;4916785;29;20025;-70
2022/05/03 01:10:35;;;;;;;3.47;3.17;;;;;;;;;;4918281;29;20024;-70
2022/05/03 01:13:04;;;;;;;4.72;3.53;;;;;;;;;;4917825;29;20378;-70
2022/05/03 01:15:44;;;;;;;3.80;3.42;;;;;;;;;;4917833;29;20416;-70
2022/05/03 01:18:15;;;;;;;4.90;3.55;;;;;;;;;;4918093;29;20038;-70
2022/05/03 01:20:42;;;;;;;4.93;3.80;;;;;;;;;;4917630;29;20020;-70
2022/05/03 01:23:11;;;;;;;4.45;3.70;;;;;;;;;;4917918;29;20030;-70
2022/05/03 01:25:52;;;;;;;3.92;3.42;;;;;;;;;;4918191;29;20042;-70
2022/05/03 01:28:25;;;;;;;5.75;3.50;;;;;;;;;;4916507;29;20028;-70
2022/05/03 01:30:52;;;;;;;6.25;3.42;;;;;;;;;;4917631;29;20035;-70
2022/05/03 01:33:22;;;;;;;7.28;3.70;;;;;;;;;;4917181;29;20511;-70
2022/05/03 01:35:51;;;;;;;6.05;3.25;;;;;;;;;;4917593;29;20043;-70
2022/05/03 01:38:17;;;;;;;4.05;2.95;;;;;;;;;;4917670;29;20028;-70
2022/05/03 01:41:14;;;;;;;4.45;3.53;;;;;;;;;;4918197;29;20028;-70
2022/05/03 01:43:49;;;;;;;3.90;3.50;;;;;;;;;;4882300;29;20112;-70
2022/05/03 01:46:25;;;;;;;3.75;3.17;;;;;;;;;;4882144;29;20033;-70
2022/05/03 01:51:43;;;;;;;4.82;3.17;;;;;;;;;;4881905;29;20047;-70
2022/05/03 01:54:21;;;;;;;5.18;3.33;;;;;;;;;;4881379;29;20040;-70
2022/05/03 01:57:07;;;;;;;3.78;3.40;;;;;;;;;;4879742;29;20402;-70
2022/05/03 01:59:48;;;;;;;5.47;3.88;;;;;;;;;;4878585;29;20076;-70
2022/05/03 02:02:14;;;;;;;;;;;;;;;;;;4879235;29;20033;-70
2022/05/03 02:04:43;;;;;;;5.05;3.80;;;;;;;;;;4881984;29;20288;-70
2022/05/03 02:07:15;;;;;;;4.43;3.70;;;;;;;;;;4881356;29;20051;-70
2022/05/03 02:09:47;;;;;;;5.93;3.92;;;;;;;;;;4881531;29;20039;-70
2022/05/03 02:12:18;;;;;;;6.45;4.00;;;;;;;;;;4881110;29;20052;-70
2022/05/03 02:14:54;;;;;;;4.07;3.60;;;;;;;;;;4879443;29;20045;-70
2022/05/03 02:17:27;;;;;;;6.38;4.25;;;;;;;;;;4877755;29;20055;-70
2022/05/03 02:20:13;;;;;;;6.13;3.72;;;;;;;;;;4898555;29;20408;-70
2022/05/03 02:22:39;;;;;;;6.45;4.18;;;;;;;;;;4915435;29;20086;-70
2022/05/03 02:25:12;;;;;;;6.30;4.22;;;;;;;;;;4916616;29;20028;-70
2022/05/03 02:27:41;;;;;;;4.95;4.20;;;;;;;;;;4916598;29;20028;-70
2022/05/03 02:30:08;;;;;;;5.80;3.88;;;;;;;;;;4916804;29;20028;-70
2022/05/03 02:32:45;;;;;;;4.30;3.63;;;;;;;;;;4916272;29;20489;-70
2022/05/03 02:35:17;;;;;;;5.88;3.95;;;;;;;;;;4899601;29;20040;-70
2022/05/03 02:37:54;;;;;;;6.20;4.20;;;;;;;;;;4915346;29;20042;-70
2022/05/03 02:40:22;;;;;;;6.03;4.07;;;;;;;;;;4916050;29;20054;-70
2022/05/03 02:42:51;;;;;;;5.72;3.83;;;;;;;;;;4916335;29;20036;-70
2022/05/03 02:45:18;;;;;;;8.02;3.78;;;;;;;;;;4915019;29;20028;-70
2022/05/03 02:48:03;;;;;;;4.50;3.72;;;;;;;;;;4916227;29;20020;-70
2022/05/03 02:50:50;;;;;;;4.28;3.88;;;;;;;;;;4901525;29;20032;-70
2022/05/03 02:53:19;;;;;;;6.32;3.78;;;;;;;;;;4902055;29;20032;-70
2022/05/03 02:55:45;;;;;;;4.78;3.63;;;;;;;;;;4916537;29;20066;-70
2022/05/03 02:58:11;;;;;;;6.63;3.95;;;;;;;;;;4916402;29;20032;-70
2022/05/03 03:03:41;;;;;;;7.10;3.70;;;;;;;;;;4916016;29;20489;-70
2022/05/03 03:06:13;;;;;;;5.10;3.90;;;;;;;;;;4915898;29;20020;-70
2022/05/03 03:08:44;;;;;;;5.80;4.28;;;;;;;;;;4915894;29;20024;-70
2022/05/03 03:11:23;;;;;;;4.95;3.95;;;;;;;;;;4916019;29;20056;-70
2022/05/03 03:13:58;;;;;;;6.88;3.90;;;;;;;;;;4915546;29;20409;-70
2022/05/03 03:16:31;;;;;;;6.72;3.65;;;;;;;;;;4914167;29;20036;-70
2022/05/03 03:19:16;;;;;;;5.15;3.95;;;;;;;;;;4915583;29;20044;-70
2022/05/03 03:21:46;;;;;;;5.25;4.00;;;;;;;;;;4898647;29;21012;-70
2022/05/03 03:24:14;;;;;;;4.95;4.00;;;;;;;;;;4915649;29;20034;-70
2022/05/03 03:26:42;;;;;;;4.25;3.55;;;;;;;;;;4915519;29;20497;-69
2022/05/03 03:29:10;;;;;;;5.25;4.20;;;;;;;;;;4915231;29;20429;-70
2022/05/03 03:31:36;;;;;;;5.97;4.30;;;;;;;;;;4916141;29;20046;-70
2022/05/03 03:34:05;;;;;;;5.55;4.32;;;;;;;;;;4915672;29;20039;-70
2022/05/03 03:36:32;;;;;;;5.72;4.65;;;;;;;;;;4915301;29;20544;-70
2022/05/03 03:38:58;;;;;;;7.07;5.47;;;;;;;;;;4915699;29;20024;-70
2022/05/03 03:41:25;;;;;;;7.93;5.55;;;;;;;;;;4915724;29;20036;-70
2022/05/03 03:43:53;;;;;;;6.40;5.80;;;;;;;;;;4915452;29;20377;-70
2022/05/03 03:46:19;;;;;;;6.38;5.03;;;;;;;;;;4915554;29;20034;-70
2022/05/03 03:48:46;;;;;;;5.05;4.38;;;;;;;;;;4915192;29;20523;-70
2022/05/03 03:51:13;;;;;;;4.50;3.80;;;;;;;;;;4914688;29;20392;-70
2022/05/03 03:53:40;;;;;;;5.47;3.75;;;;;;;;;;4915391;29;20499;-69
2022/05/03 03:56:06;;;;;;;6.13;4.15;;;;;;;;;;4915257;29;20493;-70
2022/05/03 03:58:33;;;;;;;7.20;4.45;;;;;;;;;;4914409;29;20050;-70
2022/05/03 04:01:00;;;;;;;8.48;3.97;;;;;;;;;;4915065;29;20071;-70
2022/05/03 04:03:26;;;;;;;5.15;3.95;;;;;;;;;;4915424;29;20028;-70
2022/05/03 04:05:53;;;;;;;6.40;3.90;;;;;;;;;;4915494;29;20031;-70
2022/05/03 04:08:19;;;;;;;4.95;4.28;;;;;;;;;;4915043;29;20043;-70
2022/05/03 04:10:46;;;;;;;5.68;4.13;;;;;;;;;;4915577;29;20027;-70
2022/05/03 04:13:13;;;;;;;5.45;4.18;;;;;;;;;;4914847;29;20032;-70
2022/05/03 04:15:40;;;;;;;4.57;3.78;;;;;;;;;;4914922;29;20039;-70
2022/05/03 04:18:10;;;;;;;4.55;4.13;;;;;;;;;;4915004;29;20034;-70
2022/05/03 04:20:37;;;;;;;6.82;4.22;;;;;;;;;;4915002;29;20400;-70
2022/05/03 04:23:03;;;;;;;7.07;4.65;;;;;;;;;;4915411;29;20397;-70
2022/05/03 04:25:29;;;;;;;4.85;4.18;;;;;;;;;;4915277;29;20040;-70
2022/05/03 04:27:56;;;;;;;6.90;4.03;;;;;;;;;;4914420;29;20032;-70
2022/05/03 04:30:22;;;;;;;5.50;3.92;;;;;;;;;;4915203;29;20020;-70
2022/05/03 04:32:48;;;;;;;6.38;4.05;;;;;;;;;;4914923;29;20020;-70
2022/05/03 04:35:15;;;;;;;5.60;4.15;;;;;;;;;;4914785;29;20043;-70
2022/05/03 04:37:41;;;;;;;6.07;4.60;;;;;;;;;;4915557;29;20043;-70
2022/05/03 04:40:08;;;;;;;6.07;4.65;;;;;;;;;;4914689;29;20515;-70
2022/05/03 04:42:34;;;;;;;5.20;4.25;;;;;;;;;;4914374;29;20028;-70
2022/05/03 04:45:00;;;;;;;6.85;4.50;;;;;;;;;;4914930;29;20473;-70
2022/05/03 04:47:27;;;;;;;6.45;4.32;;;;;;;;;;4915010;29;20034;-70
2022/05/03 04:49:53;;;;;;;6.25;4.25;;;;;;;;;;4915190;29;20028;-70
2022/05/03 04:52:19;;;;;;;5.47;4.30;;;;;;;;;;4914667;29;20501;-70
2022/05/03 04:54:46;;;;;;;5.00;4.50;;;;;;;;;;4914804;29;20486;-70
2022/05/03 04:57:12;;;;;;;5.97;4.70;;;;;;;;;;4914303;29;20040;-70
2022/05/03 04:59:40;;;;;;;5.85;4.43;;;;;;;;;;4914855;29;20034;-70
2022/05/03 05:02:06;;;;;;;9.43;5.32;;;;;;;;;;4914952;29;20024;-70
2022/05/03 05:04:32;;;;;;;4.60;4.15;;;;;;;;;;4918320;29;20441;-70
2022/05/03 05:06:59;;;;;;;7.13;4.45;;;;;;;;;;4918069;29;20028;-70
2022/05/03 05:09:25;;;;;;;5.93;4.43;;;;;;;;;;4917058;29;20030;-70
2022/05/03 05:11:52;;;;;;;9.07;4.18;;;;;;;;;;4917566;29;20048;-70
2022/05/03 05:14:20;;;;;;;5.88;4.30;;;;;;;;;;4917925;29;20307;-70
2022/05/03 05:16:47;;;;;;;5.47;4.68;;;;;;;;;;4918406;29;20505;-70
2022/05/03 05:19:13;;;;;;;6.93;4.45;;;;;;;;;;4918021;29;20036;-70
2022/05/03 05:21:40;;;;;;;7.28;4.05;;;;;;;;;;4917818;29;20031;-70
2022/05/03 05:24:10;;;;;;;6.70;4.38;;;;;;;;;;4917954;29;20024;-70
2022/05/03 05:26:36;;;;;;;8.23;4.70;;;;;;;;;;4917367;29;20515;-70
2022/05/03 05:29:02;;;;;;;5.25;4.68;;;;;;;;;;4918072;29;20434;-70
2022/05/03 05:31:29;;;;;;;7.10;4.50;;;;;;;;;;4917701;29;20503;-70
2022/05/03 05:33:55;;;;;;;7.57;4.20;;;;;;;;;;4917909;29;20028;-70
2022/05/03 05:36:22;;;;;;;4.18;3.67;;;;;;;;;;4917731;29;20038;-70
2022/05/03 05:38:48;;;;;;;4.75;3.90;;;;;;;;;;4917536;29;20547;-70
2022/05/03 05:41:16;;;;;;;5.30;3.88;;;;;;;;;;4916077;29;20036;-70
2022/05/03 05:43:43;;;;;;;8.75;4.15;;;;;;;;;;4916214;29;20028;-70
2022/05/03 05:46:09;;;;;;;10.70;4.47;;;;;;;;;;4917404;29;20071;-70
2022/05/03 05:48:35;;;;;;;7.70;4.60;;;;;;;;;;4917449;29;20040;-70
2022/05/03 05:51:01;;;;;;;7.13;4.32;;;;;;;;;;4917425;29;20024;-70
2022/05/03 05:53:34;;;;;;;4.85;4.30;;;;;;;;;;4917792;29;20052;-70
2022/05/03 05:56:01;;;;;;;12.63;4.28;;;;;;;;;;4912493;29;20040;-70
2022/05/03 05:58:28;;;;;;;9.98;4.50;;;;;;;;;;4917308;29;20036;-70
2022/05/03 06:00:54;;;;;;;6.40;4.55;;;;;;;;;;4917134;29;20055;-70
2022/05/03 06:03:22;;;;;;;6.00;4.32;;;;;;;;;;4916976;29;20028;-69
2022/05/03 06:05:49;;;;;;;7.18;4.63;;;;;;;;;;4917350;29;20016;-70
2022/05/03 06:08:16;;;;;;;5.55;4.28;;;;;;;;;;4917067;29;20024;-70
2022/05/03 06:10:42;;;;;;;5.93;3.90;;;;;;;;;;4914275;29;20043;-70
2022/05/03 06:13:10;;;;;;;9.25;4.20;;;;;;;;;;4916538;29;20397;-70
2022/05/03 06:15:37;;;;;;;6.22;4.50;;;;;;;;;;4915002;29;20040;-70
2022/05/03 06:18:04;;;;;;;11.27;4.80;;;;;;;;;;4916185;29;20392;-70
2022/05/03 06:20:30;;;;;;;7.88;4.55;;;;;;;;;;4899393;29;20060;-70
2022/05/03 06:22:57;;;;;;;7.22;4.40;;;;;;;;;;4917128;29;20036;-70
2022/05/03 06:25:23;;;;;;;10.63;4.43;;;;;;;;;;4916253;29;20075;-70
2022/05/03 06:27:50;;;;;;;6.50;4.53;;;;;;;;;;4916010;29;20396;-70
2022/05/03 06:30:16;;;;;;;9.10;4.85;;;;;;;;;;4916106;29;20035;-70
2022/05/03 06:32:43;;;;;;;7.78;4.85;;;;;;;;;;4915751;29;20032;-70
2022/05/03 06:35:13;;;;;;;7.38;4.50;;;;;;;;;;4916434;29;20026;-70
2022/05/03 06:37:41;;;;;;;7.47;4.50;;;;;;;;;;4916260;29;20412;-70
2022/05/03 06:40:11;;;;;;;7.15;4.63;;;;;;;;;;4916444;29;20054;-70
2022/05/03 06:42:38;;;;;;;7.32;5.13;;;;;;;;;;4916028;29;20043;-70
2022/05/03 06:45:05;;;;;;;6.22;4.90;;;;;;;;;;4916006;29;20027;-70
2022/05/03 06:47:31;;;;;;;7.13;4.97;;;;;;;;;;4915754;29;20044;-70
2022/05/03 06:49:58;;;;;;;8.00;4.53;;;;;;;;;;4916744;29;20040;-70
2022/05/03 06:52:25;;;;;;;8.82;5.50;;;;;;;;;;4915732;29;20028;-70
2022/05/03 06:54:52;;;;;;;5.47;4.60;;;;;;;;;;4916036;29;20040;-70
2022/05/03 06:57:19;;;;;;;7.70;5.38;;;;;;;;;;4915388;29;20046;-70
2022/05/03 06:59:45;;;;;;;8.27;5.07;;;;;;;;;;4915843;29;20551;-70
2022/05/03 07:02:12;;;;;;;6.25;5.13;;;;;;;;;;4916067;29;20020;-70
2022/05/03 07:04:38;;;;;;;6.00;5.05;;;;;;;;;;4919787;29;20038;-70
2022/05/03 07:07:04;;;;;;;9.93;6.00;;;;;;;;;;4917892;29;20055;-70
2022/05/03 07:09:31;;;;;;;15.02;6.55;;;;;;;;;;4915872;29;20035;-70
2022/05/03 07:11:57;;;;;;;12.48;7.88;;;;;;;;;;4915281;29;20429;-70
2022/05/03 07:14:23;;;;;;;11.48;5.60;;;;;;;;;;4914216;29;20046;-70
2022/05/03 07:16:50;;;;;;;7.70;6.43;;;;;;;;;;4915570;29;20036;-70
2022/05/03 07:22:45;;;;;;;9.98;7.75;;;;;;;;;;4915196;29;20032;-70
2022/05/03 07:24:57;;;;;;;10.50;7.50;;;;;;;;;;4915334;29;20054;-69
2022/05/03 07:27:23;;;;;;;10.63;8.40;;;;;;;;;;4915011;29;20024;-70
2022/05/03 07:29:49;;;;;;;13.93;8.43;;;;;;;;;;4914339;29;20044;-69
2022/05/03 07:32:16;;;;;;;15.07;8.60;;;;;;;;;;4913238;29;20028;-70
2022/05/03 07:34:42;;;;;;;14.10;9.50;;;;;;;;;;4911467;29;20032;-70
2022/05/03 07:37:09;;;;;;;18.27;9.60;;;;;;;;;;4913721;29;20044;-70
2022/05/03 07:39:35;;;;;;;13.55;9.32;;;;;;;;;;4919369;29;20383;-70
2022/05/03 07:42:01;;;;;;;12.63;9.82;;;;;;;;;;4915419;29;20400;-70
2022/05/03 07:44:28;;;;;;;12.25;9.38;;;;;;;;;;4914305;29;20034;-70
2022/05/03 07:46:54;;;;;;;14.25;9.18;;;;;;;;;;4914998;29;20058;-70
2022/05/03 07:49:20;;;;;;;14.63;9.85;;;;;;;;;;4912730;29;20051;-70
2022/05/03 07:51:47;;;;;;;15.38;10.43;;;;;;;;;;4909612;29;20044;-70
2022/05/03 07:54:13;;;;;;;12.45;8.80;;;;;;;;;;4914112;29;20024;-70
2022/05/03 07:56:39;;;;;;;12.18;9.10;;;;;;;;;;4912663;29;20040;-70
2022/05/03 07:59:09;;;;;;;18.30;9.98;;;;;;;;;;4912734;29;20540;-70
2022/05/03 08:01:39;;;;;;;13.43;9.85;;;;;;;;;;4913910;29;20035;-70
2022/05/03 08:04:06;;;;;;;14.80;9.60;;;;;;;;;;4913633;29;20414;-67
2022/05/03 08:06:35;;;;;;;13.55;9.70;;;;;;;;;;4913590;29;20044;-70
2022/05/03 08:09:01;;;;;;;12.55;10.23;;;;;;;;;;4913459;29;20025;-71
2022/05/03 08:11:28;;;;;;;13.55;9.98;;;;;;;;;;4914283;29;20047;-71
2022/05/03 08:13:54;;;;;;;11.32;9.35;;;;;;;;;;4915421;29;20039;-70
2022/05/03 08:16:21;;;;;;;12.73;9.77;;;;;;;;;;4914525;29;20454;-70
2022/05/03 08:18:48;;;;;;;15.70;9.93;;;;;;;;;;4914304;29;20039;-70
2022/05/03 08:21:15;;;;;;;12.55;9.55;;;;;;;;;;4915012;29;20016;-70
2022/05/03 08:23:41;;;;;;;12.30;9.88;;;;;;;;;;4914764;29;20396;-70
2022/05/03 08:26:07;;;;;;;12.80;9.77;;;;;;;;;;4914473;29;20392;-70
2022/05/03 08:28:34;;;;;;;15.75;10.35;;;;;;;;;;4912800;29;20024;-70
2022/05/03 08:31:02;;;;;;;13.98;9.60;;;;;;;;;;4914396;29;20025;-70
2022/05/03 08:33:29;;;;;;;10.15;8.98;;;;;;;;;;4914669;29;20036;-69
2022/05/03 08:35:55;;;;;;;11.98;8.68;;;;;;;;;;4914559;29;20052;-70
2022/05/03 08:43:52;;;;;;;10.05;7.88;;;;;;;;;;4917793;29;20504;-68
2022/05/03 08:46:20;;;;;;;8.73;7.28;;;;;;;;;;4917975;29;20042;-68
2022/05/03 08:48:47;;;;;;;8.73;7.45;;;;;;;;;;4917536;29;20032;-68
2022/05/03 08:51:16;;;;;;;9.13;8.07;;;;;;;;;;4918162;29;20032;-68
2022/05/03 08:53:42;;;;;;;10.88;7.25;;;;;;;;;;4918275;29;20020;-68
2022/05/03 08:56:09;;;;;;;9.43;7.32;;;;;;;;;;4918203;29;20032;-68
2022/05/03 08:58:35;;;;;;;10.80;7.88;;;;;;;;;;4918115;29;20046;-68
2022/05/03 09:01:21;;;;;;;11.98;7.40;;;;;;;;;;4918053;29;20505;-69
2022/05/03 09:03:47;;;;;;;9.38;8.00;;;;;;;;;;4917421;29;20028;-70
2022/05/03 09:06:13;;;;;;;10.15;8.25;;;;;;;;;;4917857;29;20394;-70
2022/05/03 09:08:40;;;;;;;10.13;8.30;;;;;;;;;;4900513;29;20036;-70
2022/05/03 09:11:17;;;;;;;9.45;8.35;;;;;;;;;;4917804;29;20040;-70
2022/05/03 09:13:45;;;;;;;13.35;9.13;;;;;;;;;;4899799;29;20032;-70
2022/05/03 09:16:11;;;;;;;11.07;7.93;;;;;;;;;;4917537;29;20400;-70
2022/05/03 09:18:38;;;;;;;12.98;8.70;;;;;;;;;;4916953;29;20040;-70
2022/05/03 09:24:03;;;;;;;11.57;8.73;;;;;;;;;;4917366;29;20027;-70
2022/05/03 09:26:30;;;;;;;14.73;8.50;;;;;;;;;;4902750;29;20024;-70
2022/05/03 09:29:05;;;;;;;11.13;8.32;;;;;;;;;;4917701;29;20118;-70
2022/05/03 09:32:01;;;;;;;14.88;8.30;;;;;;;;;;4913435;29;20030;-70
2022/05/03 09:34:27;;;;;;;9.82;8.85;;;;;;;;;;4896830;29;20521;-70
2022/05/03 09:36:58;;;;;;;15.38;8.80;;;;;;;;;;4917241;29;20032;-70
2022/05/03 09:39:25;;;;;;;11.90;8.68;;;;;;;;;;4917052;29;20415;-70
2022/05/03 09:42:03;;;;;;;11.43;7.80;;;;;;;;;;4917380;29;20026;-70
2022/05/03 09:44:36;;;;;;;8.70;7.78;;;;;;;;;;4909209;29;20027;-69
2022/05/03 09:47:06;;;;;;;11.40;7.93;;;;;;;;;;4916720;29;20028;-70
2022/05/03 09:49:37;;;;;;;9.23;7.28;;;;;;;;;;4915752;29;20066;-68
2022/05/03 09:52:04;;;;;;;11.07;6.63;;;;;;;;;;4912783;29;20040;-70
2022/05/03 09:54:59;;;;;;;9.05;6.57;;;;;;;;;;4909913;29;20075;-68
2022/05/03 09:57:26;;;;;;;8.30;6.20;;;;;;;;;;4875815;29;20383;-70
2022/05/03 09:59:53;;;;;;;10.10;5.85;;;;;;;;;;4885669;29;20045;-70
2022/05/03 10:02:23;;;;;;;8.30;6.20;;;;;;;;;;4890670;29;20466;-68
2022/05/03 10:04:51;;;;;;;9.00;5.95;;;;;;;;;;4887282;29;20440;-68
2022/05/03 10:07:18;;;;;;;9.18;7.60;;;;;;;;;;4876034;29;20048;-68
2022/05/03 10:09:45;;;;;;;7.00;6.25;;;;;;;;;;4877938;29;20035;-68
2022/05/03 10:12:13;;;;;;;6.18;4.00;;;;;;;;;;4883601;29;20049;-68
2022/05/03 10:14:40;;;;;;;6.05;3.70;;;;;;;;;;4889637;29;20096;-68
2022/05/03 10:22:55;;;;;;;5.65;2.58;;;;;;;;;;4803900;29;20053;-69
2022/05/03 10:25:28;;;;;;;4.80;2.97;;;;;;;;;;4803519;29;20077;-68
2022/05/03 10:27:56;;;;;;;3.78;2.75;;;;;;;;;;4803355;29;20043;-68
2022/05/03 10:30:24;;;;;;;5.80;2.92;;;;;;;;;;4802802;29;20086;-68
2022/05/03 10:33:08;;;;;;;5.78;3.10;;;;;;;;;;4803349;29;20031;-68
2022/05/03 10:35:36;;;;;;;4.05;2.75;;;;;;;;;;4825821;29;20046;-70
2022/05/03 10:38:04;;;;;;;4.13;2.88;;;;;;;;;;4839564;29;20044;-70
2022/05/03 10:40:38;;;;;;;4.22;3.22;;;;;;;;;;4839617;29;20026;-68
2022/05/03 10:43:06;;;;;;;4.15;3.58;;;;;;;;;;4839579;29;20038;-67
2022/05/03 10:45:40;;;;;;;4.38;3.35;;;;;;;;;;4838832;29;20118;-69
2022/05/03 10:48:21;;;;;;;4.18;3.15;;;;;;;;;;4839332;29;20050;-69
2022/05/03 10:50:48;;;;;;;6.68;3.38;;;;;;;;;;4839401;29;20038;-69
2022/05/03 10:53:15;;;;;;;6.05;3.28;;;;;;;;;;4839381;29;20034;-69
2022/05/03 10:56:00;;;;;;;5.45;2.80;;;;;;;;;;4839520;29;20029;-69
2022/05/03 10:58:34;;;;;;;4.22;2.90;;;;;;;;;;4915698;29;20388;-69
2022/05/03 11:01:00;;;;;;;3.22;2.67;;;;;;;;;;4915883;29;20028;-69
2022/05/03 11:03:27;;;;;;;6.05;3.22;;;;;;;;;;4915248;29;20543;-69
2022/05/03 11:06:12;;;;;;;5.65;2.88;;;;;;;;;;4915594;29;20034;-69
2022/05/03 11:11:39;;;;;;;5.00;2.97;;;;;;;;;;4915614;29;20041;-69
2022/05/03 11:14:06;;;;;;;5.18;3.33;;;;;;;;;;4912750;29;20441;-69
2022/05/03 11:16:35;;;;;;;3.78;3.28;;;;;;;;;;4915052;29;20049;-69
2022/05/03 11:19:11;;;;;;;5.15;3.65;;;;;;;;;;4915970;29;20062;-69
2022/05/03 11:21:38;;;;;;;6.57;3.70;;;;;;;;;;4915732;29;20388;-70
2022/05/03 11:24:05;;;;;;;5.13;3.40;;;;;;;;;;4915815;29;20036;-69
2022/05/03 11:26:31;;;;;;;5.80;3.33;;;;;;;;;;4915158;29;20020;-69
2022/05/03 11:28:59;;;;;;;6.60;4.53;;;;;;;;;;4915801;29;20393;-69
2022/05/03 11:31:28;;;;;;;7.40;3.47;;;;;;;;;;4915793;29;20032;-69
2022/05/03 11:33:58;;;;;;;6.63;3.58;;;;;;;;;;4915308;29;20036;-69
2022/05/03 11:36:26;;;;;;;6.50;3.45;;;;;;;;;;4914361;29;20469;-69
2022/05/03 11:38:54;;;;;;;7.57;3.40;;;;;;;;;;4913242;29;20050;-69
2022/05/03 11:41:24;;;;;;;6.20;3.25;;;;;;;;;;4915174;29;20040;-69
2022/05/03 11:43:51;;;;;;;8.38;2.90;;;;;;;;;;4915187;29;20036;-69
2022/05/03 11:46:18;;;;;;;6.78;3.15;;;;;;;;;;4914504;29;20531;-69
2022/05/03 11:48:45;;;;;;;6.65;2.95;;;;;;;;;;4914690;29;20039;-69
2022/05/03 11:56:48;;;;;;;6.55;3.70;;;;;;;;;;4912217;29;20036;-69
2022/05/03 11:59:14;;;;;;;6.88;4.07;;;;;;;;;;4914803;29;20022;-69
2022/05/03 12:01:41;;;;;;;9.95;5.80;;;;;;;;;;4915290;29;20035;-69
2022/05/03 12:04:08;;;;;;;8.43;4.90;;;;;;;;;;4914913;29;20035;-69
2022/05/03 12:06:42;;;;;;;6.22;5.25;;;;;;;;;;4914147;29;20028;-69
2022/05/03 12:09:10;;;;;;;9.20;5.10;;;;;;;;;;4913580;29;20030;-69
2022/05/03 12:12:42;;;;;;;8.18;5.03;;;;;;;;;;4913253;29;20047;-69
2022/05/03 12:14:33;;;;;;;9.10;5.15;;;;;;;;;;4913145;29;20054;-69
2022/05/03 12:16:59;;;;;;;7.82;5.45;;;;;;;;;;4913305;29;20054;-70
2022/05/03 12:19:26;;;;;;;7.85;5.55;;;;;;;;;;4913752;29;20036;-69
2022/05/03 12:21:53;;;;;;;8.80;5.85;;;;;;;;;;4912447;29;20509;-69
2022/05/03 12:24:33;;;;;;;7.60;5.50;;;;;;;;;;4913997;29;20433;-69
2022/05/03 12:27:09;;;;;;;8.40;5.82;;;;;;;;;;4913273;29;20030;-70
2022/05/03 12:29:42;;;;;;;8.90;5.07;;;;;;;;;;4911222;29;20032;-69
2022/05/03 12:32:16;;;;;;;3.83;2.90;;;;;;;;;;4912038;29;20031;-69
2022/05/03 12:35:03;;;;;;;6.70;2.97;;;;;;;;;;4914060;29;20034;-69
2022/05/03 12:37:29;;;;;;;4.97;3.10;;;;;;;;;;4914533;29;20044;-69
2022/05/03 12:40:02;;;;;;;4.18;3.25;;;;;;;;;;4897376;29;20024;-69
2022/05/03 12:42:40;;;;;;;4.57;3.22;;;;;;;;;;4914532;29;20094;-69
2022/05/03 12:45:12;;;;;;;4.05;3.22;;;;;;;;;;4914562;29;20030;-69
2022/05/03 12:47:38;;;;;;;4.32;3.05;;;;;;;;;;4911078;29;20021;-70
2022/05/03 12:50:05;;;;;;;7.88;3.40;;;;;;;;;;4914700;29;20032;-69
2022/05/03 12:52:31;;;;;;;3.63;2.92;;;;;;;;;;4911486;29;20032;-69
2022/05/03 12:54:59;;;;;;;5.78;3.35;;;;;;;;;;4914010;29;20123;-69
2022/05/03 13:00:11;;;;;;;6.78;3.15;;;;;;;;;;4914733;29;20031;-69
2022/05/03 13:02:38;;;;;;;5.78;2.95;;;;;;;;;;4897197;29;20040;-69
2022/05/03 13:05:04;;;;;;;3.67;2.53;;;;;;;;;;4913605;29;20212;-69
2022/05/03 13:07:31;;;;;;;8.52;3.25;;;;;;;;;;4914081;29;20032;-69
2022/05/03 13:09:57;;;;;;;9.80;5.53;;;;;;;;;;4912137;29;20428;-69
2022/05/03 13:12:24;;;;;;;11.95;6.88;;;;;;;;;;4913898;29;20527;-70
2022/05/03 13:14:50;;;;;;;23.45;8.50;;;;;;;;;;4905647;29;20024;-69
2022/05/03 13:17:17;;;;;;;9.10;4.90;;;;;;;;;;4913466;29;20054;-69
2022/05/03 13:19:43;;;;;;;5.78;3.58;;;;;;;;;;4914377;29;20478;-69
2022/05/03 13:22:09;;;;;;;5.90;3.53;;;;;;;;;;4896888;29;20040;-69
2022/05/03 13:24:36;;;;;;;5.63;3.30;;;;;;;;;;4914005;29;20445;-69
2022/05/03 13:27:02;;;;;;;4.68;3.42;;;;;;;;;;4916910;29;20040;-69
2022/05/03 13:29:30;;;;;;;7.60;4.10;;;;;;;;;;4917680;29;20032;-69
2022/05/03 13:31:57;;;;;;;10.00;3.92;;;;;;;;;;4916252;29;20040;-70
2022/05/03 13:34:23;;;;;;;8.13;3.85;;;;;;;;;;4916697;29;20040;-70
2022/05/03 13:42:20;;;;;;;8.77;4.13;;;;;;;;;;4916912;29;20485;-70
2022/05/03 13:44:46;;;;;;;12.68;4.32;;;;;;;;;;4917185;29;20026;-70
2022/05/03 13:47:13;;;;;;;8.52;4.45;;;;;;;;;;4916277;29;20028;-69
2022/05/03 13:49:42;;;;;;;9.77;4.88;;;;;;;;;;4917330;29;20397;-69
2022/05/03 13:52:08;;;;;;;6.57;4.55;;;;;;;;;;4916626;29;20035;-69
2022/05/03 13:54:34;;;;;;;9.35;4.70;;;;;;;;;;4915138;29;20448;-69
2022/05/03 13:57:01;;;;;;;9.13;5.18;;;;;;;;;;4916646;29;20032;-69
2022/05/03 13:59:27;;;;;;;5.63;4.38;;;;;;;;;;4916984;29;20044;-69
2022/05/03 14:01:54;;;;;;;9.95;4.80;;;;;;;;;;4917317;29;20032;-69
2022/05/03 14:04:20;;;;;;;13.13;5.72;;;;;;;;;;4915623;29;20020;-69
2022/05/03 14:06:46;;;;;;;7.18;5.40;;;;;;;;;;4916591;29;20404;-69
2022/05/03 14:09:13;;;;;;;8.68;5.47;;;;;;;;;;4916141;29;20024;-69
2022/05/03 14:11:39;;;;;;;10.88;6.03;;;;;;;;;;4916403;29;20048;-69
2022/05/03 14:14:06;;;;;;;8.23;5.20;;;;;;;;;;4917065;29;20032;-69
2022/05/03 14:16:32;;;;;;;10.93;7.47;;;;;;;;;;4916452;29;20342;-69
2022/05/03 14:18:59;;;;;;;27.58;14.95;;;;;;;;;;4912437;29;20035;-69
2022/05/03 14:21:25;;;;;;;24.90;13.95;;;;;;;;;;4915185;29;20024;-69
2022/05/03 14:23:51;;;;;;;25.60;14.18;;;;;;;;;;4916119;29;20425;-69
2022/05/03 14:26:18;;;;;;;19.17;12.07;;;;;;;;;;4915621;29;20024;-69
2022/05/03 14:28:46;;;;;;;19.20;11.07;;;;;;;;;;4915931;29;20519;-69
2022/05/03 14:31:13;;;;;;;21.42;13.32;;;;;;;;;;4914550;29;20521;-69
2022/05/03 14:33:39;;;;;;;24.65;13.02;;;;;;;;;;4913966;29;20393;-69
2022/05/03 14:36:05;;;;;;;16.90;9.75;;;;;;;;;;4911513;29;20024;-69
2022/05/03 14:38:32;;;;;;;18.38;9.90;;;;;;;;;;4914226;29;20024;-70
2022/05/03 14:40:58;;;;;;;16.35;8.90;;;;;;;;;;4916049;29;20026;-69
2022/05/03 14:43:24;;;;;;;14.05;7.93;;;;;;;;;;4915287;29;20024;-69
2022/05/03 14:45:50;;;;;;;10.27;5.63;;;;;;;;;;4915573;29;20040;-69
2022/05/03 14:48:17;;;;;;;8.25;5.25;;;;;;;;;;4915687;29;20028;-69
2022/05/03 14:50:43;;;;;;;16.20;8.85;;;;;;;;;;4911257;29;20087;-68
2022/05/03 14:53:10;;;;;;;9.80;6.60;;;;;;;;;;4913765;29;20028;-70
2022/05/03 14:55:37;;;;;;;8.80;5.65;;;;;;;;;;4915450;29;20032;-69
2022/05/03 15:03:34;;;;;;;7.13;4.50;;;;;;;;;;4916125;29;20379;-69
2022/05/03 15:06:00;;;;;;;5.53;4.65;;;;;;;;;;4916149;29;20030;-69
2022/05/03 15:08:26;;;;;;;10.43;4.60;;;;;;;;;;4916395;29;20047;-69
2022/05/03 15:10:54;;;;;;;11.27;5.50;;;;;;;;;;4915853;29;20040;-69
2022/05/03 15:13:20;;;;;;;7.18;4.05;;;;;;;;;;4913334;29;20043;-69
2022/05/03 15:15:47;;;;;;;5.22;4.13;;;;;;;;;;4915774;29;20400;-69
2022/05/03 15:18:14;;;;;;;9.07;4.63;;;;;;;;;;4915641;29;20119;-69
2022/05/03 15:20:40;;;;;;;6.82;4.25;;;;;;;;;;4915562;29;20016;-69
2022/05/03 15:25:52;;;;;;;7.75;4.13;;;;;;;;;;4915441;29;20472;-69
2022/05/03 15:28:20;;;;;;;7.65;4.57;;;;;;;;;;4915640;29;20075;-69
2022/05/03 15:30:50;;;;;;;6.93;4.50;;;;;;;;;;4915384;29;20046;-69
